Impacts METAR Board
IDs:

KMSP - Minneapolis-St Paul, MN, US

Updated at: 1600 UTC 03 Dec 2021
Potential Impact None Slight Moderate High
Time 03/04Z 03/05Z 03/06Z 03/07Z 03/08Z 03/09Z 03/10Z 03/11Z 03/12Z 03/13Z 03/14Z 03/15Z 03/16Z
Temp41 38 37 36 35 35 34 35 35 35 36 37 38
Dewpt29 32 33 33 33 33 32 33 33 33 33 33 33
Altim30.01 30.01 30.04 30.03 30.03 30.01 29.99 30.01 30.01 30.02 30.04 30.06 30.07
VIS10 9 10 9 8 7 8 8 8 9 9 10 10
CIG60 55 60 30 5 95 160 70 65 60 60 60 50
CoverOVCOVCOVCOVCOVCBKNOVCOVCOVCOVCOVCOVCOVC
FltCatVFRVFRVFRMVFRIFRVFRVFRVFRVFRVFRVFRVFRVFR
WX-RA-RA-RA---DZ-DZ--------------
WDir40404040100908010013014000360
WSpd5 6 5 7 4 6 6 4 5 3 4 0 4
WGst-- -- -- -- -- -- -- -- -- -- -- -- --
Raw hourly METARs
KMSP 030353Z 04005KT 10SM -RA FEW048 OVC060 05/M02 A3001 RMK AO2 RAB0255E04B50 SLP169 P0000 T00501017
KMSP 030453Z 04006KT 9SM -RA FEW043 OVC055 03/00 A3001 RMK AO2 SLP170 P0002 T00330000
KMSP 030553Z 04005KT 10SM -RA OVC060 03/01 A3004 RMK AO2 SLP177 P0001 60003 T00280006 10061 20028 401000028 51016
KMSP 030700Z 04007KT 9SM OVC030 02/01 A3003 RMK AO2 T00220006
KMSP 030753Z 10004KT 8SM -DZ BKN005 OVC055 02/01 A3003 RMK AO2 SLP175 DZB11 P0000 T00170006
KMSP 030853Z 09006KT 7SM -DZ FEW005 SCT070 BKN095 02/01 A3001 RMK AO2 SLP170 P0001 60002 T00170006 58008
KMSP 030953Z 08006KT 8SM SCT005 OVC160 01/00 A2999 RMK AO2 DZE46 SLP163 P0000 T00110000
KMSP 031053Z 10004KT 8SM SCT005 OVC070 02/01 A3001 RMK AO2 SLP169 T00170006
KMSP 031153Z 13005KT 8SM OVC065 02/01 A3001 RMK AO2 SLP170 60002 70005 T00170006 10022 20011 53005
KMSP 031253Z 14003KT 9SM OVC060 02/01 A3002 RMK AO2 SLP174 T00170006
KMSP 031353Z VRB04KT 9SM OVC060 02/01 A3004 RMK AO2 SLP178 T00220006
KMSP 031453Z 00000KT 10SM OVC060 03/01 A3006 RMK AO2 SLP187 T00280006 53017
KMSP 031553Z 36004KT 10SM OVC050 03/01 A3007 RMK AO2 SLP191 T00330006



Page loaded:  16:02 UTC  |   08:02 AM Pacific  |   09:02 AM Mountain  |   10:02 AM Central  |   11:02 AM Eastern

 

ADVISORIES

FORECASTS

FORECASTS

OBSERVATIONS

USER TOOLS

ABOUT US